Time;durP1;ratioP1;P1;durP2;ratioP2;P2;SDS_P1;SDS_P2;PMS_P1;PMS_P2;Temp;Humidity;BMP_temperature;BMP_pressure;BME280_temperature;BME280_humidity;BME280_pressure;Samples;Min_cycle;Max_cycle;Signal;HPM_P1;HPM_P2
2022/07/07 00:00:17;;;;;;;11.37;6.67;;;;;;;17.00;81.64;101904.41;5116490;27;20833;-88
2022/07/07 00:02:48;;;;;;;13.77;6.10;;;;;;;17.03;81.65;101888.56;5135153;27;20024;-88
2022/07/07 00:05:14;;;;;;;10.20;6.20;;;;;;;17.01;81.80;101888.81;5116662;27;20050;-88
2022/07/07 00:07:40;;;;;;;7.87;5.70;;;;;;;17.07;81.69;101895.25;5134474;27;20479;-88
2022/07/07 00:10:06;;;;;;;8.60;5.93;;;;;;;17.05;81.53;101886.41;5116240;27;20463;-88
2022/07/07 00:12:31;;;;;;;8.43;5.83;;;;;;;17.10;81.80;101886.56;5116000;28;20019;-87
2022/07/07 00:14:57;;;;;;;8.77;5.75;;;;;;;17.08;81.52;101886.81;5134424;27;20019;-87
2022/07/07 00:17:22;;;;;;;7.03;5.67;;;;;;;17.10;81.13;101887.38;5134721;28;20027;-87
2022/07/07 00:19:50;;;;;;;8.93;6.15;;;;;;;17.12;81.20;101887.16;5116130;28;20030;-88
2022/07/07 00:22:16;;;;;;;8.77;6.00;;;;;;;17.11;81.05;101875.38;5115808;28;20034;-88
2022/07/07 00:24:42;;;;;;;11.93;6.30;;;;;;;17.09;81.05;101877.47;5116183;28;20032;-88
2022/07/07 00:27:07;;;;;;;8.90;5.90;;;;;;;17.09;81.10;101872.00;5115852;28;20027;-88
2022/07/07 00:29:33;;;;;;;8.15;5.85;;;;;;;17.10;80.78;101870.13;5116208;28;20068;-88
2022/07/07 00:32:00;;;;;;;9.20;5.47;;;;;;;17.12;80.96;101873.44;5116188;28;20031;-88
2022/07/07 00:34:28;;;;;;;6.53;4.80;;;;;;;17.15;80.64;101865.56;5116126;28;20026;-88
2022/07/07 00:36:53;;;;;;;8.68;5.57;;;;;;;17.15;80.91;101853.78;5115807;28;20035;-88
2022/07/07 00:39:19;;;;;;;9.43;5.40;;;;;;;17.11;80.98;101845.19;5099795;28;20035;-88
2022/07/07 00:41:44;;;;;;;7.07;5.27;;;;;;;17.15;80.92;101848.28;5116037;28;20451;-88
2022/07/07 00:44:22;;;;;;;8.50;5.57;;;;;;;17.13;80.93;101845.78;5116327;28;20023;-89
2022/07/07 00:46:54;;;;;;;7.40;5.10;;;;;;;17.12;80.98;101846.03;5134780;28;20062;-88
2022/07/07 00:49:24;;;;;;;6.40;4.80;;;;;;;17.12;81.27;101844.09;5116170;28;20041;-88
2022/07/07 00:51:50;;;;;;;7.25;4.70;;;;;;;17.14;81.09;101849.34;5134091;28;20035;-89
2022/07/07 00:54:19;;;;;;;8.77;4.63;;;;;;;17.17;81.05;101848.91;5134113;28;20035;-89
2022/07/07 00:56:45;;;;;;;5.57;4.67;;;;;;;17.17;81.19;101836.03;5115960;28;20367;-89
2022/07/07 00:59:10;;;;;;;6.60;4.78;;;;;;;17.18;81.20;101845.94;5116115;28;20052;-89
2022/07/07 01:01:43;;;;;;;9.20;5.10;;;;;;;17.22;81.03;101831.75;5115718;28;20030;-89
2022/07/07 01:04:13;;;;;;;6.82;4.38;;;;;;;17.24;80.98;101829.59;5135019;28;20039;-89
2022/07/07 01:06:40;;;;;;;12.50;4.65;;;;;;;17.23;80.60;101837.00;5115809;28;20463;-88
2022/07/07 01:09:06;;;;;;;6.27;4.07;;;;;;;17.26;80.73;101832.91;5116169;28;20043;-89
2022/07/07 01:12:04;;;;;;;7.22;4.53;;;;;;;17.28;80.74;101833.53;5134806;28;20079;-88
2022/07/07 01:14:29;;;;;;;6.80;4.28;;;;;;;17.31;80.50;101842.13;5076884;28;20094;-88
2022/07/07 01:16:56;;;;;;;9.87;4.40;;;;;;;17.31;80.90;101833.06;5103737;28;20118;-88
2022/07/07 01:19:22;;;;;;;5.75;4.13;;;;;;;17.31;80.88;101830.31;5099691;28;20126;-88
2022/07/07 01:22:03;;;;;;;9.85;4.50;;;;;;;17.32;80.72;101838.31;5120074;27;20356;-88
2022/07/07 01:24:29;;;;;;;7.72;4.10;;;;;;;17.34;80.63;101829.84;5119959;27;20031;-88
2022/07/07 01:27:08;;;;;;;7.40;4.25;;;;;;;17.34;80.62;101830.66;5137913;27;20057;-88
2022/07/07 01:29:36;;;;;;;7.27;4.53;;;;;;;17.35;81.00;101831.53;5119398;27;20122;-88
2022/07/07 01:32:03;;;;;;;7.47;4.57;;;;;;;17.38;81.17;101832.94;5119043;27;20026;-88
2022/07/07 01:34:31;;;;;;;7.68;4.68;;;;;;;17.36;80.73;101825.81;5137755;27;20035;-89
2022/07/07 01:36:59;;;;;;;9.93;4.70;;;;;;;17.36;81.07;101816.72;5102632;27;20031;-88
2022/07/07 01:39:27;;;;;;;5.50;4.18;;;;;;;17.38;81.25;101811.84;5101772;27;20575;-88
2022/07/07 01:41:52;;;;;;;6.70;4.30;;;;;;;17.38;81.26;101820.06;5120628;27;20050;-89
2022/07/07 01:44:18;;;;;;;8.15;5.10;;;;;;;17.36;81.18;101806.59;5119710;27;20455;-88
2022/07/07 01:46:43;;;;;;;8.07;4.80;;;;;;;17.37;81.53;101815.66;5118974;27;20038;-88
2022/07/07 01:49:10;;;;;;;7.60;4.00;;;;;;;17.36;81.46;101803.00;5119533;27;20023;-88
2022/07/07 01:51:45;;;;;;;9.82;4.47;;;;;;;17.34;81.40;101799.69;5118945;27;20025;-89
2022/07/07 01:54:18;;;;;;;8.25;4.93;;;;;;;17.35;81.55;101806.84;5120152;27;20039;-88
2022/07/07 01:56:45;;;;;;;10.18;4.90;;;;;;;17.32;81.81;101799.91;5119137;27;20046;-88
2022/07/07 01:59:11;;;;;;;8.17;4.83;;;;;;;17.31;82.34;101800.16;5136872;27;20033;-88
2022/07/07 02:01:36;;;;;;;8.70;4.78;;;;;;;17.32;82.14;101807.31;5136782;27;20023;-88
2022/07/07 02:04:02;;;;;;;8.70;4.80;;;;;;;17.31;82.60;101800.16;5118422;27;20130;-89
2022/07/07 02:06:31;;;;;;;8.98;4.88;;;;;;;17.34;82.57;101816.97;5119060;27;20091;-89
2022/07/07 02:08:56;;;;;;;6.53;4.80;;;;;;;17.28;83.38;101812.41;5118107;27;20053;-88
2022/07/07 02:11:22;;;;;;;7.17;4.43;;;;;;;17.29;83.54;101803.13;5118973;27;20367;-89
2022/07/07 02:13:51;;;;;;;9.77;4.60;;;;;;;17.29;83.40;101800.41;5118381;27;20453;-89
2022/07/07 02:16:19;;;;;;;8.10;4.60;;;;;;;17.31;83.72;101802.91;5118789;27;20473;-89
2022/07/07 02:18:46;;;;;;;6.75;4.22;;;;;;;17.30;83.73;101799.31;5117624;27;20559;-89
2022/07/07 02:21:15;;;;;;;11.35;4.22;;;;;;;17.33;83.86;101804.34;5118330;27;20019;-89
2022/07/07 02:23:46;;;;;;;7.85;3.95;;;;;;;17.35;83.79;101796.69;5118532;27;20030;-89
2022/07/07 02:26:14;;;;;;;6.10;4.00;;;;;;;17.38;83.50;101797.28;5136915;27;20447;-89
2022/07/07 02:28:41;;;;;;;7.63;4.28;;;;;;;17.38;83.92;101805.50;5118229;27;20023;-88
2022/07/07 02:31:07;;;;;;;9.38;4.03;;;;;;;17.39;83.71;101796.22;5117156;27;20027;-88
2022/07/07 02:33:41;;;;;;;10.43;4.25;;;;;;;17.39;84.20;101794.31;5117698;27;20068;-89
2022/07/07 02:36:11;;;;;;;8.23;4.13;;;;;;;17.40;84.19;101793.22;5136628;27;20493;-89
2022/07/07 02:38:39;;;;;;;9.03;3.60;;;;;;;17.38;83.83;101787.16;5118002;27;20119;-89
2022/07/07 02:41:07;;;;;;;10.35;3.75;;;;;;;17.36;84.39;101786.53;5135997;27;20225;-88
2022/07/07 02:43:33;;;;;;;7.78;4.00;;;;;;;17.35;84.53;101784.91;5117492;27;20030;-88
2022/07/07 02:45:59;;;;;;;5.05;3.45;;;;;;;17.36;84.38;101790.16;5100591;27;20027;-88
2022/07/07 02:48:26;;;;;;;9.10;3.70;;;;;;;17.35;84.68;101782.97;5117699;27;20023;-88
2022/07/07 02:50:55;;;;;;;8.80;3.42;;;;;;;17.40;83.97;101785.00;5117638;27;20027;-88
2022/07/07 02:53:24;;;;;;;6.88;3.70;;;;;;;17.39;84.02;101783.34;5117791;27;20023;-88
2022/07/07 02:55:49;;;;;;;13.13;4.13;;;;;;;17.39;84.63;101777.00;5117863;27;20039;-88
2022/07/07 02:58:22;;;;;;;6.80;3.43;;;;;;;17.40;84.77;101778.69;5135645;27;20080;-88
2022/07/07 03:00:54;;;;;;;11.90;3.58;;;;;;;17.41;85.03;101794.09;5118017;27;20079;-88
2022/07/07 03:03:20;;;;;;;8.23;3.35;;;;;;;17.44;85.09;101799.09;5117378;27;20030;-88
2022/07/07 03:05:45;;;;;;;8.37;3.50;;;;;;;17.41;85.12;101778.44;5117369;27;20051;-88
2022/07/07 03:08:11;;;;;;;6.40;3.35;;;;;;;17.42;85.22;101788.34;5116793;27;20104;-89
2022/07/07 03:10:36;;;;;;;6.20;3.57;;;;;;;17.39;85.60;101798.97;5100679;27;20049;-88
2022/07/07 03:13:14;;;;;;;7.30;3.33;;;;;;;17.37;86.58;101801.94;5135936;27;20383;-88
2022/07/07 03:15:39;;;;;;;6.38;3.47;;;;;;;17.24;88.22;101808.47;5117102;27;20088;-89
2022/07/07 03:18:04;;;;;;;8.40;3.80;;;;;;;17.09;90.97;101799.88;5117389;27;20019;-88
2022/07/07 03:20:33;;;;;;;4.85;3.20;;;;;;;16.99;89.61;101812.28;5100051;27;20371;-89
2022/07/07 03:23:08;;;;;;;4.80;3.00;;;;;;;16.87;89.28;101814.13;5116659;27;20083;-89
2022/07/07 03:25:34;;;;;;;7.72;2.97;;;;;;;16.74;90.80;101811.56;5116906;27;20076;-88
2022/07/07 03:27:59;;;;;;;4.47;2.50;;;;;;;16.67;90.33;101807.00;5135417;27;20038;-89
2022/07/07 03:30:25;;;;;;;3.90;2.80;;;;;;;16.65;90.91;101806.44;5116959;27;20035;-89
2022/07/07 03:32:53;;;;;;;5.30;2.22;;;;;;;16.60;90.18;101806.28;5135360;27;20058;-89
2022/07/07 03:35:21;;;;;;;3.87;1.80;;;;;;;16.45;92.12;101820.38;5117659;27;20434;-89
2022/07/07 03:37:46;;;;;;;3.20;2.00;;;;;;;16.29;94.00;101821.84;5118681;27;20027;-89
2022/07/07 03:40:12;;;;;;;3.70;2.20;;;;;;;16.17;94.18;101818.22;5122550;27;20050;-89
2022/07/07 03:42:37;;;;;;;2.53;2.17;;;;;;;15.97;96.60;101823.91;5128032;28;20308;-89
2022/07/07 03:45:04;;;;;;;4.63;2.60;;;;;;;15.87;98.09;101826.34;5147942;27;20027;-89
2022/07/07 03:47:37;;;;;;;5.20;3.13;;;;;;;15.66;100.00;101809.25;5102121;27;20087;-90
2022/07/07 03:50:03;;;;;;;3.88;3.25;;;;;;;15.58;100.00;101818.59;5136635;27;20034;-89
2022/07/07 03:52:29;;;;;;;5.13;3.50;;;;;;;15.51;100.00;101811.53;5117220;27;20020;-89
2022/07/07 03:54:54;;;;;;;6.70;4.03;;;;;;;15.50;100.00;101809.84;5115933;27;20395;-89
2022/07/07 03:57:19;;;;;;;7.47;4.07;;;;;;;15.46;100.00;101817.69;5117041;27;20118;-89
2022/07/07 03:59:45;;;;;;;5.13;4.20;;;;;;;15.43;100.00;101813.50;5116479;28;20440;-89
2022/07/07 04:02:13;;;;;;;4.70;3.88;;;;;;;15.40;100.00;101815.84;5116324;27;20035;-89
2022/07/07 04:04:40;;;;;;;6.28;4.45;;;;;;;15.45;100.00;101821.47;5100696;28;20043;-90
2022/07/07 04:07:08;;;;;;;4.97;4.00;;;;;;;15.39;100.00;101812.25;5116312;27;20061;-88
2022/07/07 04:09:33;;;;;;;4.75;4.25;;;;;;;15.42;100.00;101808.25;5117604;27;20035;-89
2022/07/07 04:11:59;;;;;;;7.60;4.90;;;;;;;15.43;100.00;101805.28;5134667;27;20040;-89
2022/07/07 04:14:24;;;;;;;5.70;4.70;;;;;;;15.49;100.00;101806.28;5116477;28;20412;-89
2022/07/07 04:16:52;;;;;;;4.88;4.38;;;;;;;15.46;100.00;101779.41;5099087;28;20027;-89
2022/07/07 04:19:20;;;;;;;7.55;4.43;;;;;;;15.46;100.00;101784.88;5116573;28;20031;-89
2022/07/07 04:21:46;;;;;;;8.07;5.33;;;;;;;15.48;100.00;101790.94;5115937;28;20390;-89
2022/07/07 04:24:11;;;;;;;6.78;4.93;;;;;;;15.50;100.00;101786.09;5134999;28;20023;-89
2022/07/07 04:26:37;;;;;;;6.77;5.20;;;;;;;15.51;100.00;101782.28;5116007;28;20478;-89
2022/07/07 04:29:05;;;;;;;8.43;4.30;;;;;;;15.53;100.00;101793.00;5115931;28;20034;-89
2022/07/07 04:31:30;;;;;;;5.93;4.03;;;;;;;15.54;100.00;101784.56;5116388;28;20467;-89
2022/07/07 04:33:56;;;;;;;6.75;3.83;;;;;;;15.55;100.00;101791.72;5116131;28;20023;-89
2022/07/07 04:36:21;;;;;;;6.37;3.97;;;;;;;15.59;100.00;101792.13;5116504;28;20108;-89
2022/07/07 04:38:46;;;;;;;8.97;3.97;;;;;;;15.64;100.00;101799.63;5098810;28;20031;-89
2022/07/07 04:41:12;;;;;;;7.75;3.65;;;;;;;15.68;100.00;101809.91;5116289;28;20027;-89
2022/07/07 04:43:40;;;;;;;10.60;3.80;;;;;;;15.68;100.00;101811.78;5116307;28;20023;-89
2022/07/07 04:46:06;;;;;;;7.97;4.22;;;;;;;15.71;100.00;101820.38;5115803;28;20027;-89
2022/07/07 04:48:32;;;;;;;6.53;3.60;;;;;;;15.66;100.00;101822.13;5116117;28;20039;-89
2022/07/07 04:50:57;;;;;;;8.95;3.92;;;;;;;15.63;100.00;101834.34;5116155;28;20032;-90
2022/07/07 04:53:23;;;;;;;4.87;2.63;;;;;;;15.55;100.00;101824.53;5116533;28;20035;-89
2022/07/07 04:55:51;;;;;;;4.83;2.27;;;;;;;15.44;100.00;101834.31;5118971;27;20023;-90
2022/07/07 04:58:16;;;;;;;4.00;2.30;;;;;;;15.44;100.00;101836.19;5119534;27;20042;-89
2022/07/07 05:00:42;;;;;;;2.13;1.60;;;;;;;15.36;100.00;101831.03;5103633;27;20130;-90
2022/07/07 05:03:07;;;;;;;1.87;1.63;;;;;;;15.36;100.00;101831.03;5120093;27;20306;-89
2022/07/07 05:05:38;;;;;;;5.00;1.70;;;;;;;15.38;100.00;101840.69;5120083;27;20076;-89
2022/07/07 05:08:06;;;;;;;4.70;1.60;;;;;;;15.40;100.00;101833.09;5119677;27;20049;-89
2022/07/07 05:10:32;;;;;;;4.03;1.63;;;;;;;15.46;100.00;101844.19;5102553;27;20049;-89
2022/07/07 05:13:00;;;;;;;3.37;1.37;;;;;;;15.47;100.00;101845.84;5119381;27;20514;-86
2022/07/07 05:15:26;;;;;;;4.72;1.40;;;;;;;15.54;100.00;101849.38;5120106;27;20527;-90
2022/07/07 05:17:54;;;;;;;5.15;1.50;;;;;;;15.55;100.00;101857.34;5119542;27;20035;-90
2022/07/07 05:20:19;;;;;;;7.63;1.63;;;;;;;15.63;100.00;101858.97;5137709;27;20483;-90
2022/07/07 05:22:45;;;;;;;4.28;1.60;;;;;;;15.66;100.00;101855.78;5119061;27;20075;-90
2022/07/07 05:25:10;;;;;;;5.23;2.00;;;;;;;15.66;100.00;101869.44;5119546;27;20375;-90
2022/07/07 05:27:36;;;;;;;8.37;1.47;;;;;;;15.70;100.00;101867.13;5102085;27;20175;-86
2022/07/07 05:30:02;;;;;;;4.13;1.42;;;;;;;15.76;100.00;101872.50;5137764;27;20360;-86
2022/07/07 05:32:31;;;;;;;4.33;1.60;;;;;;;15.85;100.00;101869.53;5119490;27;20123;-86
2022/07/07 05:34:59;;;;;;;4.85;1.40;;;;;;;15.94;100.00;101879.97;5119189;27;20026;-86
2022/07/07 05:37:25;;;;;;;6.53;1.67;;;;;;;15.98;100.00;101866.66;5119073;27;20027;-88
2022/07/07 05:39:51;;;;;;;4.10;1.23;;;;;;;16.12;100.00;101881.03;5119042;27;20378;-84
2022/07/07 05:42:16;;;;;;;4.90;1.37;;;;;;;16.30;99.18;101878.31;5118850;27;20020;-84
2022/07/07 05:44:41;;;;;;;5.90;1.40;;;;;;;16.39;97.59;101881.56;5102913;27;20737;-85
2022/07/07 05:47:15;;;;;;;6.40;1.50;;;;;;;16.42;97.40;101878.38;5118962;27;20042;-85
2022/07/07 05:49:40;;;;;;;3.47;1.30;;;;;;;16.49;95.75;101875.56;5102436;27;20035;-85
2022/07/07 05:52:06;;;;;;;6.57;1.80;;;;;;;16.55;96.05;101891.06;5136887;27;20049;-85
2022/07/07 05:54:31;;;;;;;7.63;1.30;;;;;;;16.54;94.74;101905.00;5118415;27;20429;-84
2022/07/07 05:56:57;;;;;;;3.00;1.10;;;;;;;16.61;94.26;101897.53;5119542;27;20347;-84
2022/07/07 05:59:23;;;;;;;4.70;1.20;;;;;;;16.62;94.66;101904.66;5118386;27;20026;-84
2022/07/07 06:01:48;;;;;;;3.35;1.20;;;;;;;16.59;95.11;101908.69;5085720;27;20060;-84
2022/07/07 06:04:14;;;;;;;4.83;1.53;;;;;;;16.58;95.01;101907.03;5118406;27;20024;-84
2022/07/07 06:06:39;;;;;;;3.60;1.20;;;;;;;16.55;94.92;101910.25;5101377;27;20027;-84
2022/07/07 06:09:05;;;;;;;6.57;1.63;;;;;;;16.45;96.39;101916.25;5118783;27;20119;-84
2022/07/07 06:11:30;;;;;;;5.70;1.30;;;;;;;16.45;97.32;101909.94;5136859;27;20103;-84
2022/07/07 06:13:56;;;;;;;4.33;1.00;;;;;;;16.51;96.77;101930.13;5102074;27;20035;-84
2022/07/07 06:16:38;;;;;;;3.90;1.17;;;;;;;16.65;95.74;101943.44;5118335;27;20504;-84
2022/07/07 06:19:05;;;;;;;7.83;1.40;;;;;;;16.81;94.12;101941.09;5137535;27;20027;-84
2022/07/07 06:21:30;;;;;;;4.88;1.38;;;;;;;16.88;92.88;101950.13;5117584;27;20073;-84
2022/07/07 06:23:56;;;;;;;5.45;1.13;;;;;;;17.05;91.12;101952.22;5118014;27;20023;-84
2022/07/07 06:26:21;;;;;;;4.83;1.30;;;;;;;17.15;88.57;101968.94;5101167;27;20028;-84
2022/07/07 06:28:47;;;;;;;4.93;1.20;;;;;;;17.24;85.54;101950.25;5100797;27;20038;-84
2022/07/07 06:31:12;;;;;;;7.40;1.23;;;;;;;17.26;85.76;101954.44;5136687;27;20102;-84
2022/07/07 06:33:38;;;;;;;7.88;1.20;;;;;;;17.28;83.98;101952.31;5118026;27;20124;-87
2022/07/07 06:36:04;;;;;;;8.87;1.57;;;;;;;17.32;81.56;101958.19;5117587;27;20416;-84
2022/07/07 06:38:30;;;;;;;7.43;1.52;;;;;;;17.40;80.86;101962.47;5117696;27;20501;-84
2022/07/07 06:40:58;;;;;;;6.40;1.30;;;;;;;17.38;79.25;101973.69;5117675;27;20027;-83
2022/07/07 06:43:24;;;;;;;8.07;1.60;;;;;;;17.31;79.05;101978.44;5136196;27;20031;-85
2022/07/07 06:45:50;;;;;;;9.45;1.63;;;;;;;17.40;79.83;101970.72;5117471;27;20115;-83
2022/07/07 06:48:15;;;;;;;12.10;1.67;;;;;;;17.48;77.39;101984.06;5100337;27;20077;-86
2022/07/07 06:50:41;;;;;;;9.47;1.63;;;;;;;17.56;77.97;101989.25;5135538;27;20023;-84
2022/07/07 06:53:07;;;;;;;7.60;1.73;;;;;;;17.59;77.41;101991.50;5117079;27;20425;-86
2022/07/07 06:55:33;;;;;;;13.63;1.92;;;;;;;17.49;78.58;101999.47;5117478;27;20033;-84
2022/07/07 06:58:02;;;;;;;5.07;0.90;;;;;;;17.49;76.65;101999.47;5083679;27;20039;-89
2022/07/07 07:03:50;;;;;;;7.47;1.35;;;;;;;16.86;83.07;101995.22;5135932;27;20115;-88
2022/07/07 07:06:19;;;;;;;6.70;1.07;;;;;;;16.95;83.18;102000.22;5136160;27;20059;-88
2022/07/07 07:08:47;;;;;;;7.75;1.45;;;;;;;17.23;82.00;102006.16;5097815;27;20059;-91
2022/07/07 07:11:14;;;;;;;5.45;1.00;;;;;;;17.47;79.68;101979.69;5119495;27;20035;-91
2022/07/07 07:13:49;;;;;;;8.50;1.30;;;;;;;17.54;79.11;101985.91;5136480;27;20035;-91
2022/07/07 07:16:26;;;;;;;4.53;1.10;;;;;;;17.48;77.55;101995.91;5101945;27;20089;-90
2022/07/07 07:18:51;;;;;;;7.45;1.25;;;;;;;17.31;79.19;102005.88;5100879;27;20043;-92
2022/07/07 07:21:19;;;;;;;8.70;1.55;;;;;;;17.18;77.97;101998.66;5094403;28;20057;-91
2022/07/07 07:23:51;;;;;;;7.97;1.33;;;;;;;17.07;79.17;102007.66;5095356;27;20186;-91
2022/07/07 07:26:16;;;;;;;8.02;1.15;;;;;;;17.07;78.41;102011.25;5118206;27;20046;-91
2022/07/07 07:28:42;;;;;;;7.95;1.20;;;;;;;17.15;78.80;101999.94;5118272;27;20050;-91
2022/07/07 07:31:18;;;;;;;6.27;1.83;;;;;;;17.12;78.21;102008.63;5116955;27;20024;-92
2022/07/07 07:34:00;;;;;;;5.78;1.35;;;;;;;17.21;78.38;102025.59;5103180;27;20039;-91
2022/07/07 07:36:35;;;;;;;9.55;1.40;;;;;;;17.58;77.79;102019.19;5136412;27;20023;-91
2022/07/07 07:39:23;;;;;;;11.00;1.23;;;;;;;17.85;75.45;102034.19;5101147;27;20387;-92
2022/07/07 07:41:55;;;;;;;7.38;1.50;;;;;;;18.13;73.47;102018.97;5102907;27;20038;-91
2022/07/07 07:47:12;;;;;;;7.80;1.20;;;;;;;18.29;71.00;102024.81;5120222;27;20397;-91
2022/07/07 07:49:37;;;;;;;6.15;1.38;;;;;;;18.21;70.70;102029.59;5116829;27;20512;-91
2022/07/07 07:52:08;;;;;;;4.63;1.10;;;;;;;18.26;70.94;102048.09;5116544;27;20023;-91
2022/07/07 07:54:41;;;;;;;7.50;1.30;;;;;;;18.13;71.09;102040.09;5100071;27;20060;-92
2022/07/07 07:57:09;;;;;;;5.70;1.67;;;;;;;18.04;72.44;102040.47;5117024;27;20027;-91
2022/07/07 07:59:38;;;;;;;7.15;1.17;;;;;;;17.49;77.77;102052.47;5116296;27;20027;-91
2022/07/07 08:02:09;;;;;;;7.45;1.33;;;;;;;16.87;81.38;102074.53;5117285;27;20027;-91
2022/07/07 08:04:42;;;;;;;5.63;0.88;;;;;;;16.53;82.69;102065.78;5135338;27;20027;-91
2022/07/07 08:07:09;;;;;;;5.38;1.08;;;;;;;16.38;83.05;102052.44;5101135;27;20034;-91
2022/07/07 08:09:35;;;;;;;4.40;0.80;;;;;;;16.70;82.06;102054.22;5115882;27;20062;-91
2022/07/07 08:12:03;;;;;;;3.83;0.73;;;;;;;17.07;81.33;102052.38;5116188;27;20035;-91
2022/07/07 08:14:29;;;;;;;4.43;1.13;;;;;;;17.40;78.76;102055.75;5116698;27;20038;-91
2022/07/07 08:16:54;;;;;;;5.20;1.70;;;;;;;17.62;79.02;102061.56;5116507;28;20467;-91
2022/07/07 08:19:20;;;;;;;4.00;1.00;;;;;;;17.70;77.65;102074.94;5116562;28;20100;-91
2022/07/07 08:22:02;;;;;;;5.97;1.10;;;;;;;17.66;78.86;102066.34;5116205;28;20038;-91
2022/07/07 08:24:32;;;;;;;5.67;1.13;;;;;;;17.67;78.16;102062.53;5117431;28;20105;-91
2022/07/07 08:27:04;;;;;;;4.50;1.30;;;;;;;17.59;77.55;102067.53;5116314;28;20031;-91
2022/07/07 08:29:41;;;;;;;4.60;1.00;;;;;;;17.86;78.41;102066.06;5136373;27;20031;-91
2022/07/07 08:32:10;;;;;;;5.47;1.02;;;;;;;18.30;75.52;102063.03;5122832;27;20114;-91
2022/07/07 08:34:42;;;;;;;4.43;1.13;;;;;;;18.55;74.36;102065.56;5142665;27;20099;-91
2022/07/07 08:37:15;;;;;;;3.63;1.30;;;;;;;18.68;72.96;102067.22;5124434;27;20042;-92
2022/07/07 08:39:41;;;;;;;6.68;1.40;;;;;;;18.64;73.23;102082.53;5107630;27;20074;-91
2022/07/07 08:42:12;;;;;;;5.93;1.33;;;;;;;18.41;74.51;102097.13;5141382;27;20020;-92
2022/07/07 08:44:46;;;;;;;4.53;1.10;;;;;;;18.12;73.78;102076.91;5123492;27;20636;-92
2022/07/07 08:47:15;;;;;;;5.78;1.40;;;;;;;18.09;73.87;102083.69;5122690;27;20477;-91
2022/07/07 08:49:48;;;;;;;5.88;1.42;;;;;;;18.27;73.42;102092.91;5138625;27;20134;-92
2022/07/07 08:52:14;;;;;;;6.55;1.10;;;;;;;18.59;72.18;102076.94;5104737;27;20062;-92
2022/07/07 08:54:41;;;;;;;6.72;1.33;;;;;;;18.81;70.89;102092.78;5119995;27;20546;-92
2022/07/07 08:57:07;;;;;;;4.70;1.10;;;;;;;18.97;69.90;102085.75;5138466;27;20027;-92
2022/07/07 08:59:56;;;;;;;6.03;1.30;;;;;;;19.27;70.25;102086.41;5138420;27;20019;-91
2022/07/07 09:02:25;;;;;;;7.05;1.15;;;;;;;19.49;67.98;102098.66;5120075;27;20043;-93
2022/07/07 09:04:51;;;;;;;3.65;1.35;;;;;;;19.36;68.15;102099.78;5103031;27;20035;-91
2022/07/07 09:07:19;;;;;;;8.95;1.58;;;;;;;18.85;69.47;102105.84;5120438;27;20417;-91
2022/07/07 09:09:59;;;;;;;6.80;1.03;;;;;;;18.43;72.02;102097.72;5119433;27;20494;-91
2022/07/07 09:12:24;;;;;;;4.35;1.10;;;;;;;18.34;74.17;102110.13;5138243;27;20031;-91
2022/07/07 09:14:55;;;;;;;7.27;1.33;;;;;;;18.44;74.23;102110.38;5102324;27;20043;-91
2022/07/07 09:17:33;;;;;;;4.97;1.00;;;;;;;18.99;71.81;102100.13;5138479;27;20268;-91
2022/07/07 09:20:17;;;;;;;9.80;1.65;;;;;;;19.31;67.89;102118.94;5119249;27;20027;-91
2022/07/07 09:23:16;;;;;;;5.80;1.10;;;;;;;19.32;68.35;102115.09;5119717;27;20521;-91
2022/07/07 09:25:42;;;;;;;5.90;0.80;;;;;;;19.04;67.08;102109.28;5103337;27;20028;-91
2022/07/07 09:28:07;;;;;;;8.50;1.20;;;;;;;18.95;69.04;102112.66;5119398;27;20022;-91
2022/07/07 09:30:57;;;;;;;4.50;0.93;;;;;;;19.19;68.11;102118.94;5119600;27;20031;-91
2022/07/07 09:33:36;;;;;;;4.50;1.40;;;;;;;19.47;67.55;102120.91;5119975;27;20379;-91
2022/07/07 09:38:54;;;;;;;5.78;1.20;;;;;;;19.53;65.74;102132.84;5138179;27;20085;-91
2022/07/07 09:41:20;;;;;;;4.38;1.10;;;;;;;19.57;66.59;102129.38;5117568;27;20038;-91
2022/07/07 09:43:53;;;;;;;6.90;1.40;;;;;;;19.71;65.43;102135.44;5137417;27;20031;-91
2022/07/07 09:46:24;;;;;;;7.13;0.75;;;;;;;19.98;64.93;102143.94;5137246;27;20474;-91
2022/07/07 09:48:55;;;;;;;3.42;1.10;;;;;;;20.08;63.96;102143.31;5119835;27;20032;-91
2022/07/07 09:51:32;;;;;;;3.55;0.82;;;;;;;19.80;63.65;102152.44;5118931;27;20035;-90
2022/07/07 09:54:15;;;;;;;3.85;1.40;;;;;;;19.40;65.28;102151.34;5119271;27;20477;-90
2022/07/07 09:56:45;;;;;;;3.50;0.80;;;;;;;19.10;66.76;102170.75;5137678;27;20102;-91
2022/07/07 09:59:20;;;;;;;4.50;0.98;;;;;;;18.68;68.57;102171.69;5118564;27;20027;-92
2022/07/07 10:01:49;;;;;;;10.63;1.27;;;;;;;18.31;71.79;102187.53;5137461;27;20023;-91
2022/07/07 10:04:45;;;;;;;3.65;1.10;;;;;;;18.01;73.24;102197.47;5118763;27;20044;-91
2022/07/07 10:07:17;;;;;;;5.28;1.00;;;;;;;17.90;75.56;102200.97;5118717;27;20034;-91
2022/07/07 10:09:51;;;;;;;7.50;1.13;;;;;;;18.10;76.03;102188.88;5136724;27;20051;-91
2022/07/07 10:12:19;;;;;;;4.65;0.85;;;;;;;18.71;74.20;102190.44;5118572;27;20125;-93
2022/07/07 10:14:50;;;;;;;5.30;1.20;;;;;;;19.26;71.86;102188.44;5118441;27;20031;-91
2022/07/07 10:17:19;;;;;;;5.32;1.02;;;;;;;19.56;70.01;102191.03;5118271;27;20050;-91
2022/07/07 10:20:09;;;;;;;;;;;;;;;;;;;;;
2022/07/07 10:22:53;;;;;;;3.77;0.80;;;;;;;19.76;69.48;102196.09;5120481;27;20031;-91
2022/07/07 10:25:24;;;;;;;3.63;1.08;;;;;;;19.45;68.67;102198.22;5118088;27;20054;-91
2022/07/07 10:27:52;;;;;;;6.72;1.10;;;;;;;19.29;69.56;102209.97;5118793;27;20111;-90
2022/07/07 10:30:34;;;;;;;7.93;1.13;;;;;;;18.88;70.89;102201.63;5118068;27;20027;-91
2022/07/07 10:33:07;;;;;;;5.80;0.80;;;;;;;18.85;71.87;102215.81;5118151;27;20023;-90
2022/07/07 10:35:41;;;;;;;3.67;0.80;;;;;;;18.88;71.53;102217.28;5117722;27;20043;-91
2022/07/07 10:38:13;;;;;;;3.97;0.70;;;;;;;18.90;71.84;102218.72;5136518;27;20062;-90
2022/07/07 10:44:05;;;;;;;4.05;1.00;;;;;;;20.24;67.51;102213.31;5125400;27;20379;-90
2022/07/07 10:46:36;;;;;;;2.20;0.75;;;;;;;20.53;63.70;102216.00;5119086;27;20035;-91
2022/07/07 10:49:13;;;;;;;3.13;1.00;;;;;;;20.29;63.90;102231.84;5118422;27;20027;-86
2022/07/07 10:52:05;;;;;;;;;;;;;;;;;;;;;
2022/07/07 10:54:39;;;;;;;4.20;1.10;;;;;;;19.56;67.78;102229.56;5136704;27;20023;-86
2022/07/07 10:57:08;;;;;;;4.68;1.50;;;;;;;18.77;74.85;102260.97;5135765;27;20087;-86
2022/07/07 11:00:04;;;;;;;3.90;1.05;;;;;;;18.15;75.49;102250.28;5117157;27;20039;-86
2022/07/07 11:02:53;;;;;;;5.73;1.20;;;;;;;18.22;76.50;102259.28;5134067;27;20467;-86
2022/07/07 11:05:18;;;;;;;2.78;0.80;;;;;;;18.28;75.50;102251.16;5117318;27;20025;-86
2022/07/07 11:08:07;;;;;;;3.23;0.80;;;;;;;18.61;74.70;102258.09;5117263;27;20031;-85
2022/07/07 11:10:46;;;;;;;3.97;1.02;;;;;;;18.93;73.45;102267.72;5116120;27;20043;-86
2022/07/07 11:13:22;;;;;;;6.82;1.20;;;;;;;19.69;73.16;102257.91;5117272;27;20125;-87
2022/07/07 11:16:14;;;;;;;7.22;1.45;;;;;;;20.26;69.27;102265.44;5117815;27;20023;-87
2022/07/07 11:18:50;;;;;;;6.78;1.60;;;;;;;20.88;67.01;102264.63;5117989;27;20108;-85
2022/07/07 11:21:15;;;;;;;9.67;1.60;;;;;;;21.36;63.62;102267.81;5117060;27;20102;-85
2022/07/07 11:23:52;;;;;;;5.03;1.60;;;;;;;21.06;64.38;102271.81;5116672;27;20467;-86
2022/07/07 11:26:26;;;;;;;5.78;1.80;;;;;;;20.63;67.51;102274.09;5135472;27;20156;-85
2022/07/07 11:28:53;;;;;;;5.83;1.53;;;;;;;19.97;70.37;102287.44;5117042;27;20523;-85
2022/07/07 11:31:30;;;;;;;4.32;1.65;;;;;;;19.37;72.80;102289.41;5135809;27;20156;-85
2022/07/07 11:33:57;;;;;;;9.45;1.88;;;;;;;18.94;75.67;102296.06;5117444;27;20070;-85
2022/07/07 11:36:28;;;;;;;10.10;2.10;;;;;;;18.81;76.92;102294.34;5099717;27;20046;-85
2022/07/07 11:39:04;;;;;;;5.80;1.65;;;;;;;18.96;74.77;102293.09;5134951;27;20035;-85
2022/07/07 11:41:43;;;;;;;5.87;1.60;;;;;;;19.05;74.96;102289.75;5116704;27;20107;-85
2022/07/07 11:44:28;;;;;;;3.72;1.45;;;;;;;18.99;73.82;102296.22;5116550;27;20035;-86
2022/07/07 11:46:56;;;;;;;4.50;1.60;;;;;;;19.03;75.11;102296.56;5116874;27;20031;-84
2022/07/07 11:49:24;;;;;;;4.00;1.13;;;;;;;19.31;71.61;102290.38;5116711;27;20079;-84